• Join FlightAware (Why Join?)
  • Login
  • US Flag 
03:15AM EST


 

Airport Tracker/Info


-or-


 

Live Flight TrackerFlight Track Log ✈ TAM3375 ✈ 15-Sep-2013 ✈ SBVT / VIX - SBGR / GRU

Flight Track Log - Related Links

Times and Time Zones

All times are in EDT time to prevent confusion due to time zone crossing. See the TAM3375 flight status page for this flight to view local times or setup timezone preferences in your user account.

Time Position Orientation Groundspeed Altitude Reporting Facility
EDT Latitude Longitude Course Direction KTS MPH feet Rate Location/Type
05:49PM -21.1358 -41.9260 240° Southwest  Level Estimated
05:50PM -21.1772 -42.0045 241° Southwest  Level Estimated
05:51PM -21.2186 -42.0831 241° Southwest  Level Estimated
05:52PM -21.2599 -42.1618 241° Southwest  Level Estimated
05:53PM -21.3012 -42.2405 241° Southwest  Level Estimated
05:54PM -21.3425 -42.3192 241° Southwest  Level Estimated
05:55PM -21.3837 -42.3980 241° Southwest  Level Estimated
05:56PM -21.4249 -42.4768 241° Southwest  Level Estimated
05:57PM -21.4661 -42.5556 241° Southwest  Level Estimated
05:58PM -21.5072 -42.6346 241° Southwest  Level Estimated
05:59PM -21.5483 -42.7135 241° Southwest  Level Estimated
06:00PM -21.5893 -42.7925 241° Southwest  Level Estimated
06:01PM -21.6303 -42.8716 241° Southwest  Level Estimated
06:02PM -21.6713 -42.9506 241° Southwest  Level Estimated
06:03PM -21.7122 -43.0298 241° Southwest  Level Estimated
06:04PM -21.7531 -43.1090 241° Southwest  Level Estimated
06:05PM -21.7939 -43.1882 241° Southwest  Level Estimated
06:06PM -21.8347 -43.2674 241° Southwest  Level Estimated
06:07PM -21.8755 -43.3467 241° Southwest  Level Estimated
06:08PM -21.9163 -43.4261 241° Southwest  Level Estimated
06:09PM -21.9570 -43.5055 241° Southwest  Level Estimated
06:10PM -21.9976 -43.5850 241° Southwest  Level Estimated
06:11PM -22.0382 -43.6645 241° Southwest  Level Estimated
06:12PM -22.0788 -43.7440 241° Southwest  Level Estimated
06:13PM -22.1194 -43.8236 241° Southwest  Level Estimated
06:14PM -22.1599 -43.9032 241° Southwest  Level Estimated
06:15PM -22.2004 -43.9829 241° Southwest  Level Estimated
06:16PM -22.2408 -44.0626 241° Southwest  Level Estimated
06:17PM -22.2812 -44.1424 241° Southwest  Level Estimated
06:18PM -22.3215 -44.2222 241° Southwest  Level Estimated
06:19PM -22.3618 -44.3020 241° Southwest  Level Estimated
06:20PM -22.4021 -44.3820 241° Southwest  Level Estimated
06:21PM -22.4424 -44.4619 241° Southwest  Level Estimated
06:22PM -22.4826 -44.5419 241° Southwest  Level Estimated
06:23PM -22.5227 -44.6219 241° Southwest  Level Estimated
06:24PM -22.5628 -44.7020 242° Southwest  Level Estimated
06:25PM -22.6029 -44.7822 242° Southwest  Level Estimated
06:26PM -22.6430 -44.8624 242° Southwest  Level Estimated
06:27PM -22.6830 -44.9426 242° Southwest  Level Estimated
06:28PM -22.7229 -45.0229 242° Southwest  Level Estimated
06:29PM -22.7628 -45.1032 242° Southwest  Level Estimated
06:30PM -22.8027 -45.1836 242° Southwest  Level Estimated
06:31PM -22.8426 -45.2640 242° Southwest  Level Estimated
06:32PM -22.8824 -45.3445 242° Southwest  Level Estimated
06:33PM -22.9221 -45.4250 242° Southwest  Level Estimated
06:34PM -22.9618 -45.5055 242° Southwest  Level Estimated
06:35PM -23.0015 -45.5862 242° Southwest  Level Estimated
06:36PM -23.0411 -45.6668 242° Southwest  Level Estimated
06:37PM -23.0807 -45.7475 242° Southwest  Level Estimated
06:38PM -23.1203 -45.8283 242° Southwest  Level Estimated
06:39PM -23.1598 -45.9091 242° Southwest  Level Estimated
06:40PM -23.1992 -45.9899 242° Southwest  Level Estimated
06:41PM -23.2387 -46.0708 242° Southwest  Level Estimated
06:42PM -23.2781 -46.1517 242° Southwest  Level Estimated
06:43PM -23.3174 -46.2327 242° Southwest  Level Estimated
06:44PM -23.3567 -46.3138 242° Southwest  Level Estimated
06:45PM -23.3960 -46.3949 242° Southwest  Level Estimated
06:46PM -23.4321 -46.4695 242° Southwest  Level Estimated
06:47PM -23.4321 -46.4695 190° South  Level Estimated
06:48PM -23.4321 -46.4695 350° North  Level Estimated
06:49PM -23.4321 -46.4695 350° North  Level Estimated
06:50PM -23.4321 -46.4695 350° North  Level Estimated
06:51PM -23.4321 -46.4695 350° North  Level Estimated
06:52PM -23.4321 -46.4695 350° North  Level Estimated
06:53PM -23.4321 -46.4695 350° North  Level Estimated
06:54PM -23.4321 -46.4695 350° North  Level Estimated
06:55PM -23.4321 -46.4695 350° North  Level Estimated
06:56PM -23.4321 -46.4695 350° North  Level Estimated
06:57PM -23.4321 -46.4695 350° North  Level Estimated
06:58PM -23.4321 -46.4695 350° North  Level Estimated
06:59PM -23.4321 -46.4695 350° North  Level Estimated
07:00PM -23.4321 -46.4695 350° North  Level Estimated
07:01PM -23.4321 -46.4695 350° North  Level Estimated
07:02PM -23.4321 -46.4695 350° North  Level Estimated